createdAt,value
2022-09-17T00:01:24.957Z,99.90
2022-09-17T00:04:00.209Z,99.90
2022-09-17T00:06:27.738Z,99.90
2022-09-17T00:08:55.098Z,99.90
2022-09-17T00:11:27.054Z,99.90
2022-09-17T00:13:55.079Z,99.90
2022-09-17T00:16:35.809Z,99.90
2022-09-17T00:19:06.354Z,99.90
2022-09-17T00:21:33.085Z,99.90
2022-09-17T00:24:03.362Z,99.90
2022-09-17T00:26:32.566Z,99.90
2022-09-17T00:29:01.258Z,99.90
2022-09-17T00:31:29.984Z,99.90
2022-09-17T00:33:59.257Z,99.90
2022-09-17T00:36:26.383Z,99.90
2022-09-17T00:38:56.548Z,99.90
2022-09-17T00:41:29.614Z,99.90
2022-09-17T00:44:00.743Z,99.90
2022-09-17T00:46:40.482Z,99.90
2022-09-17T00:49:23.396Z,99.90
2022-09-17T00:52:15.564Z,99.90
2022-09-17T00:54:52.321Z,99.90
2022-09-17T00:57:19.617Z,99.90
2022-09-17T00:59:46.559Z,99.90
2022-09-17T01:02:13.489Z,99.90
2022-09-17T01:04:40.498Z,99.90
2022-09-17T01:07:43.054Z,99.90
2022-09-17T01:10:40.145Z,99.90
2022-09-17T01:13:37.128Z,99.90
2022-09-17T01:16:44.741Z,99.90
2022-09-17T01:20:11.858Z,99.90
2022-09-17T01:23:15.898Z,99.90
2022-09-17T01:26:04.502Z,99.90
2022-09-17T01:28:46.979Z,99.90
2022-09-17T01:31:35.798Z,99.90
2022-09-17T01:34:22.018Z,99.90
2022-09-17T01:37:04.308Z,99.90
2022-09-17T01:39:54.017Z,99.90
2022-09-17T01:42:35.099Z,99.90
2022-09-17T01:45:10.118Z,99.90
2022-09-17T01:48:25.600Z,99.90
2022-09-17T01:50:59.382Z,99.90
2022-09-17T01:53:36.603Z,99.90
2022-09-17T01:56:05.778Z,99.90
2022-09-17T01:58:42.598Z,99.90
2022-09-17T02:01:13.764Z,99.90
2022-09-17T02:03:49.760Z,99.90
2022-09-17T02:06:24.310Z,99.90
2022-09-17T02:09:26.546Z,99.90
2022-09-17T02:11:58.877Z,99.90
2022-09-17T02:14:36.714Z,99.90
2022-09-17T02:17:16.614Z,99.90
2022-09-17T02:19:44.175Z,99.90
2022-09-17T02:22:27.801Z,99.90
2022-09-17T02:25:14.514Z,99.90
2022-09-17T02:28:03.406Z,99.90
2022-09-17T02:30:32.019Z,99.90
2022-09-17T02:33:03.049Z,99.90
2022-09-17T02:35:32.172Z,99.90
2022-09-17T02:38:00.044Z,99.90
2022-09-17T02:40:34.506Z,99.90
2022-09-17T02:43:28.414Z,99.90
2022-09-17T02:46:26.181Z,99.90
2022-09-17T02:49:31.769Z,99.90
2022-09-17T02:52:22.301Z,99.90
2022-09-17T02:55:24.595Z,99.90
2022-09-17T02:58:26.788Z,99.90
2022-09-17T03:00:59.820Z,99.90
2022-09-17T03:03:37.605Z,99.90
2022-09-17T03:06:05.737Z,99.90
2022-09-17T03:08:38.001Z,99.90
2022-09-17T03:11:05.842Z,99.90
2022-09-17T03:13:32.583Z,99.90
2022-09-17T03:15:59.407Z,99.90
2022-09-17T03:18:26.137Z,99.90
2022-09-17T03:20:52.849Z,99.90
2022-09-17T03:23:19.534Z,99.90
2022-09-17T03:25:48.013Z,99.90
2022-09-17T03:28:14.743Z,99.90
2022-09-17T03:30:43.428Z,99.90
2022-09-17T03:33:10.473Z,99.90
2022-09-17T03:35:37.656Z,99.90
2022-09-17T03:38:04.501Z,99.90
2022-09-17T03:40:31.244Z,99.90
2022-09-17T03:42:57.991Z,99.90
2022-09-17T03:45:24.771Z,99.90
2022-09-17T03:47:51.468Z,99.90
2022-09-17T03:50:18.220Z,99.90
2022-09-17T03:52:44.984Z,99.90
2022-09-17T03:55:11.835Z,99.90
2022-09-17T03:57:38.535Z,99.90
2022-09-17T04:00:06.777Z,99.90
2022-09-17T04:02:34.141Z,99.90
2022-09-17T04:05:00.944Z,99.90
2022-09-17T04:07:27.818Z,99.90
2022-09-17T04:09:54.523Z,99.90
2022-09-17T04:12:21.340Z,99.90
2022-09-17T04:14:48.202Z,99.90
2022-09-17T04:17:18.084Z,99.90
2022-09-17T04:19:45.252Z,99.90
2022-09-17T04:22:12.274Z,99.90
2022-09-17T04:24:38.957Z,99.90
2022-09-17T04:27:05.710Z,99.90
2022-09-17T04:29:32.429Z,99.90
2022-09-17T04:31:59.133Z,99.90
2022-09-17T04:34:25.859Z,99.90
2022-09-17T04:36:53.091Z,99.90
2022-09-17T04:39:19.786Z,99.90
2022-09-17T04:41:47.163Z,99.90
2022-09-17T04:44:13.866Z,99.90
2022-09-17T04:46:40.738Z,99.90
2022-09-17T04:49:08.667Z,99.90
2022-09-17T04:51:35.379Z,99.90
2022-09-17T04:54:02.146Z,99.90
2022-09-17T04:56:28.878Z,99.90
2022-09-17T04:58:55.665Z,99.90
2022-09-17T05:01:22.500Z,99.90
2022-09-17T05:03:49.978Z,99.90
2022-09-17T05:06:16.686Z,99.90
2022-09-17T05:08:43.378Z,99.90
2022-09-17T05:11:10.061Z,99.90
2022-09-17T05:13:36.762Z,99.90
2022-09-17T05:16:03.558Z,99.90
2022-09-17T05:18:30.269Z,99.90
2022-09-17T05:20:56.967Z,99.90
2022-09-17T05:23:23.896Z,99.90
2022-09-17T05:25:50.719Z,99.90
2022-09-17T05:28:17.413Z,99.90
2022-09-17T05:30:44.168Z,99.90
2022-09-17T05:33:10.906Z,99.90
2022-09-17T05:48:38.530Z,99.90
2022-09-17T05:51:05.419Z,99.90
2022-09-17T05:53:32.143Z,99.90
2022-09-17T05:55:59.609Z,99.90
2022-09-17T05:58:27.075Z,99.90
2022-09-17T06:00:53.899Z,99.90
2022-09-17T06:03:24.749Z,99.90
2022-09-17T06:05:55.319Z,99.90
2022-09-17T06:08:23.070Z,99.90
2022-09-17T06:10:50.180Z,99.90
2022-09-17T06:13:18.512Z,99.90
2022-09-17T06:15:53.594Z,99.90
2022-09-17T06:18:21.150Z,99.90
2022-09-17T06:20:59.412Z,99.90
2022-09-17T06:23:27.746Z,99.90
2022-09-17T06:25:59.741Z,99.90
2022-09-17T06:28:27.820Z,99.90
2022-09-17T06:30:57.068Z,99.90
2022-09-17T06:33:24.129Z,99.90
2022-09-17T06:36:00.108Z,99.90
2022-09-17T06:38:32.471Z,99.90
2022-09-17T06:40:59.543Z,99.90
2022-09-17T06:43:26.543Z,99.90
2022-09-17T06:45:54.105Z,99.90
2022-09-17T06:48:22.311Z,99.90
2022-09-17T06:50:50.672Z,99.90
2022-09-17T06:53:17.603Z,99.90
2022-09-17T06:55:44.335Z,99.90
2022-09-17T06:58:11.064Z,99.90
2022-09-17T07:00:37.863Z,99.90
2022-09-17T07:03:05.070Z,99.90
2022-09-17T07:05:32.890Z,99.90
2022-09-17T07:08:05.189Z,99.90
2022-09-17T07:10:32.325Z,99.90
2022-09-17T07:12:59.332Z,99.90
2022-09-17T07:15:26.294Z,99.90
2022-09-17T07:17:53.471Z,99.90
2022-09-17T07:20:20.198Z,99.90
2022-09-17T07:22:56.498Z,99.90
2022-09-17T07:25:25.754Z,99.90
2022-09-17T07:27:53.168Z,99.90
2022-09-17T07:30:21.191Z,99.90
2022-09-17T07:32:47.986Z,99.90
2022-09-17T07:35:14.707Z,99.90
2022-09-17T07:37:41.415Z,99.90
2022-09-17T07:40:08.974Z,99.90
2022-09-17T07:42:35.979Z,99.90
2022-09-17T07:45:02.717Z,99.90
2022-09-17T07:47:29.530Z,99.90
2022-09-17T07:49:56.269Z,99.90
2022-09-17T07:52:22.969Z,99.90
2022-09-17T07:54:49.684Z,99.90
2022-09-17T07:57:16.557Z,99.90
2022-09-17T07:59:43.286Z,99.90
2022-09-17T08:02:14.149Z,99.90
2022-09-17T08:04:43.775Z,99.90
2022-09-17T08:07:13.811Z,99.90
2022-09-17T08:09:40.503Z,99.90
2022-09-17T08:12:07.662Z,99.90
2022-09-17T08:14:34.356Z,99.90
2022-09-17T08:17:01.140Z,99.90
2022-09-17T08:19:31.871Z,99.90
2022-09-17T08:21:58.670Z,99.90
2022-09-17T08:24:25.666Z,99.90
2022-09-17T08:26:52.445Z,99.90
2022-09-17T08:29:19.394Z,99.90
2022-09-17T08:31:46.172Z,99.90
2022-09-17T08:34:13.273Z,99.90
2022-09-17T08:36:40.066Z,99.90
2022-09-17T08:39:06.871Z,99.90
2022-09-17T08:41:52.366Z,99.90
2022-09-17T08:44:41.621Z,99.90
2022-09-17T08:47:30.965Z,99.90
2022-09-17T08:50:13.969Z,99.90
2022-09-17T08:53:02.653Z,99.90
2022-09-17T08:56:18.967Z,99.90
2022-09-17T08:59:21.703Z,99.90
2022-09-17T09:02:00.510Z,99.90
2022-09-17T09:05:02.423Z,99.90
2022-09-17T09:07:43.357Z,99.90
2022-09-17T09:10:44.253Z,99.90
2022-09-17T09:13:17.030Z,99.90
2022-09-17T09:16:00.594Z,99.90
2022-09-17T09:18:36.721Z,99.90
2022-09-17T09:21:28.572Z,99.90
2022-09-17T09:24:23.045Z,99.90
2022-09-17T09:27:17.787Z,99.90
2022-09-17T09:30:14.723Z,99.90
2022-09-17T09:33:18.353Z,99.90
2022-09-17T09:35:45.414Z,99.90
2022-09-17T09:38:43.331Z,99.90
2022-09-17T09:41:26.771Z,99.90
2022-09-17T09:44:05.758Z,99.90
2022-09-17T09:47:13.155Z,99.90
2022-09-17T09:50:17.698Z,99.90
2022-09-17T09:53:13.406Z,99.90
2022-09-17T09:56:30.971Z,99.90
2022-09-17T09:58:57.682Z,99.90
2022-09-17T10:01:29.921Z,99.90
2022-09-17T10:03:58.745Z,99.90
2022-09-17T10:06:30.374Z,99.90
2022-09-17T10:08:57.062Z,99.90
2022-09-17T10:11:32.347Z,99.90
2022-09-17T10:14:34.899Z,99.90
2022-09-17T10:17:16.334Z,99.90
2022-09-17T10:19:45.019Z,99.90
2022-09-17T10:22:30.330Z,99.90
2022-09-17T10:25:00.127Z,99.90
2022-09-17T10:27:28.620Z,99.90
2022-09-17T10:30:08.021Z,99.90
2022-09-17T10:32:35.219Z,99.90
2022-09-17T10:35:24.210Z,99.90
2022-09-17T10:37:53.659Z,99.90
2022-09-17T10:40:20.386Z,99.90
2022-09-17T10:43:16.681Z,99.90
2022-09-17T10:45:56.331Z,99.90
2022-09-17T10:48:23.817Z,99.90
2022-09-17T10:50:55.628Z,99.90
2022-09-17T10:53:25.222Z,99.90
2022-09-17T10:56:22.857Z,99.90
2022-09-17T10:59:36.707Z,99.90
2022-09-17T11:02:44.260Z,99.90
2022-09-17T11:05:33.861Z,99.10
2022-09-17T11:08:35.082Z,99.90
2022-09-17T11:11:24.148Z,99.90
2022-09-17T11:14:20.246Z,99.90
2022-09-17T11:17:37.702Z,99.90
2022-09-17T11:20:12.918Z,99.60
2022-09-17T11:23:18.034Z,96.50
2022-09-17T11:26:03.046Z,95.50
2022-09-17T11:29:02.296Z,97.10
2022-09-17T11:31:56.530Z,98.70
2022-09-17T11:34:56.691Z,99.70
2022-09-17T11:38:02.371Z,99.90
2022-09-17T11:41:06.064Z,99.90
2022-09-17T11:43:48.993Z,98.10
2022-09-17T11:46:24.919Z,95.50
2022-09-17T11:49:11.527Z,93.50
2022-09-17T11:51:48.840Z,92.70
2022-09-17T11:54:19.280Z,93.40
2022-09-17T11:56:52.637Z,90.30
2022-09-17T11:59:53.368Z,85.20
2022-09-17T12:03:06.732Z,85.90
2022-09-17T12:05:56.910Z,91.20
2022-09-17T12:08:42.638Z,86.50
2022-09-17T12:11:21.158Z,83.00
2022-09-17T12:13:57.399Z,84.20
2022-09-17T12:16:26.930Z,83.30
2022-09-17T12:19:22.668Z,81.00
2022-09-17T12:21:56.640Z,74.50
2022-09-17T12:24:32.036Z,76.40
2022-09-17T12:27:19.110Z,82.00
2022-09-17T12:30:05.227Z,88.50
2022-09-17T12:33:19.630Z,92.00
2022-09-17T12:36:23.954Z,94.60
2022-09-17T12:39:05.531Z,97.80
2022-09-17T12:42:04.927Z,98.90
2022-09-17T12:45:04.936Z,99.90
2022-09-17T12:47:51.179Z,99.90
2022-09-17T12:50:38.219Z,99.90
2022-09-17T12:53:39.809Z,99.90
2022-09-17T12:56:14.678Z,99.90
2022-09-17T12:59:14.426Z,99.90
2022-09-17T13:02:04.447Z,98.70
2022-09-17T13:05:30.775Z,97.70
2022-09-17T13:08:44.418Z,98.70
2022-09-17T13:11:41.691Z,99.80
2022-09-17T13:14:42.147Z,99.90
2022-09-17T13:17:34.182Z,99.90
2022-09-17T13:20:17.964Z,99.90
2022-09-17T13:22:49.003Z,99.90
2022-09-17T13:25:19.215Z,99.90
2022-09-17T13:27:48.394Z,99.90
2022-09-17T13:30:18.436Z,99.90
2022-09-17T13:32:48.831Z,99.90
2022-09-17T13:35:15.440Z,99.90
2022-09-17T13:37:57.783Z,99.90
2022-09-17T13:40:27.632Z,97.80
2022-09-17T13:43:08.220Z,97.00
2022-09-17T13:46:01.030Z,97.10
2022-09-17T13:48:35.253Z,99.30
2022-09-17T13:51:29.699Z,99.90
2022-09-17T13:54:07.365Z,99.90
2022-09-17T13:56:43.104Z,99.90
2022-09-17T13:59:23.397Z,99.90
2022-09-17T14:02:07.939Z,99.90
2022-09-17T14:04:40.399Z,99.90
2022-09-17T14:07:26.278Z,99.90
2022-09-17T14:10:11.851Z,99.90
2022-09-17T14:12:41.569Z,99.90
2022-09-17T14:15:55.278Z,99.90
2022-09-17T14:18:28.110Z,99.90
2022-09-17T14:21:12.571Z,99.90
2022-09-17T14:23:54.451Z,99.90
2022-09-17T14:26:41.831Z,99.90
2022-09-17T14:29:30.185Z,99.90
2022-09-17T14:31:58.338Z,85.50
2022-09-17T14:34:28.554Z,78.60
2022-09-17T14:36:56.696Z,79.70
2022-09-17T14:39:35.097Z,84.50
2022-09-17T14:42:04.214Z,85.50
2022-09-17T14:44:34.514Z,89.40
2022-09-17T14:47:08.445Z,91.20
2022-09-17T14:49:38.310Z,92.40
2022-09-17T14:52:30.368Z,93.00
2022-09-17T14:55:25.173Z,93.60
2022-09-17T14:57:58.605Z,95.40
2022-09-17T15:00:33.987Z,96.20
2022-09-17T15:03:00.928Z,96.30
2022-09-17T15:05:43.186Z,95.30
2022-09-17T15:08:09.823Z,92.40
2022-09-17T15:10:55.234Z,94.10
2022-09-17T15:13:28.844Z,96.20
2022-09-17T15:16:12.742Z,97.50
2022-09-17T15:18:47.551Z,96.70
2022-09-17T15:21:49.113Z,96.00
2022-09-17T15:24:28.957Z,96.00
2022-09-17T15:27:00.753Z,94.50
2022-09-17T15:29:33.127Z,90.70
2022-09-17T15:32:03.762Z,89.20
2022-09-17T15:34:30.466Z,85.70
2022-09-17T15:37:17.423Z,84.70
2022-09-17T15:39:50.815Z,88.00
2022-09-17T15:42:30.802Z,89.70
2022-09-17T15:45:31.816Z,86.70
2022-09-17T15:48:00.475Z,79.50
2022-09-17T15:50:30.555Z,73.60
2022-09-17T15:53:09.159Z,67.40
2022-09-17T15:55:40.873Z,66.70
2022-09-17T15:58:28.704Z,70.10
2022-09-17T16:01:33.424Z,74.20
2022-09-17T16:04:02.897Z,76.30
2022-09-17T16:06:29.494Z,80.20
2022-09-17T16:08:59.515Z,83.20
2022-09-17T16:11:29.755Z,83.80
2022-09-17T16:13:59.867Z,81.30
2022-09-17T16:16:36.897Z,82.50
2022-09-17T16:19:06.603Z,84.00
2022-09-17T16:21:33.335Z,81.70
2022-09-17T16:24:00.053Z,83.90
2022-09-17T16:26:33.793Z,85.10
2022-09-17T16:29:12.943Z,86.50
2022-09-17T16:31:39.731Z,87.20
2022-09-17T16:34:06.460Z,88.20
2022-09-17T16:36:33.318Z,89.10
2022-09-17T16:39:01.010Z,90.30
2022-09-17T16:41:27.839Z,91.10
2022-09-17T16:43:54.538Z,91.10
2022-09-17T16:46:21.312Z,91.70
2022-09-17T16:48:51.098Z,92.10
2022-09-17T16:51:18.355Z,92.70
2022-09-17T16:53:45.640Z,93.20
2022-09-17T16:56:15.393Z,93.90
2022-09-17T16:58:42.515Z,94.50
2022-09-17T17:01:12.477Z,95.70
2022-09-17T17:03:40.012Z,97.10
2022-09-17T17:06:15.003Z,97.70
2022-09-17T17:08:41.735Z,98.50
2022-09-17T17:11:08.436Z,99.60
2022-09-17T17:13:35.399Z,99.30
2022-09-17T17:16:12.019Z,99.90
2022-09-17T17:18:38.869Z,99.90
2022-09-17T17:21:08.460Z,99.90
2022-09-17T17:23:35.633Z,99.90
2022-09-17T17:26:03.570Z,99.90
2022-09-17T17:28:35.922Z,99.90
2022-09-17T17:31:04.684Z,99.90
2022-09-17T17:33:31.919Z,99.90
2022-09-17T17:36:08.283Z,99.90
2022-09-17T17:38:36.909Z,99.90
2022-09-17T17:43:31.036Z,99.90
2022-09-17T17:45:57.739Z,99.90
2022-09-17T17:48:24.460Z,99.90
2022-09-17T17:50:54.636Z,99.90
2022-09-17T17:53:23.481Z,99.90
2022-09-17T17:56:01.893Z,99.90
2022-09-17T17:58:29.404Z,99.90
2022-09-17T18:00:56.321Z,99.90
2022-09-17T18:03:24.907Z,99.90
2022-09-17T18:05:58.484Z,99.90
2022-09-17T18:08:25.912Z,99.90
2022-09-17T18:11:04.426Z,99.90
2022-09-17T18:13:31.559Z,99.90
2022-09-17T18:16:00.580Z,99.90
2022-09-17T18:18:42.183Z,99.90
2022-09-17T18:21:15.830Z,99.90
2022-09-17T18:23:43.925Z,99.90
2022-09-17T18:26:15.687Z,99.90
2022-09-17T18:28:43.099Z,99.90
2022-09-17T18:31:27.542Z,99.90
2022-09-17T18:34:00.825Z,99.90
2022-09-17T18:36:30.718Z,99.90
2022-09-17T18:39:24.175Z,99.90
2022-09-17T18:41:51.220Z,99.90
2022-09-17T18:44:21.365Z,99.90
2022-09-17T18:46:49.782Z,99.90
2022-09-17T18:49:16.769Z,99.90
2022-09-17T18:51:43.506Z,99.90
2022-09-17T18:54:12.700Z,99.90
2022-09-17T18:56:41.354Z,99.90
2022-09-17T18:59:08.760Z,99.90
2022-09-17T19:01:36.015Z,99.90
2022-09-17T19:04:03.642Z,99.90
2022-09-17T19:06:32.002Z,99.90
2022-09-17T19:09:06.118Z,99.90
2022-09-17T19:11:36.205Z,99.90
2022-09-17T19:14:03.331Z,99.90
2022-09-17T19:16:30.266Z,99.90
2022-09-17T19:18:57.062Z,99.90
2022-09-17T19:21:23.938Z,99.90
2022-09-17T19:23:52.229Z,99.90
2022-09-17T19:26:25.478Z,99.90
2022-09-17T19:28:54.010Z,99.90
2022-09-17T19:31:23.889Z,99.90
2022-09-17T19:33:51.505Z,99.90
2022-09-17T19:36:19.859Z,99.90
2022-09-17T19:38:48.017Z,99.90
2022-09-17T19:41:18.200Z,99.90
2022-09-17T19:43:45.379Z,99.90
2022-09-17T19:46:15.870Z,99.90
2022-09-17T19:48:47.379Z,99.90
2022-09-17T19:51:15.423Z,99.90
2022-09-17T19:53:42.345Z,99.90
2022-09-17T19:56:21.512Z,99.90
2022-09-17T19:58:48.508Z,99.90
2022-09-17T20:01:16.235Z,99.90
2022-09-17T20:03:45.003Z,99.90
2022-09-17T20:06:16.753Z,99.90
2022-09-17T20:08:53.135Z,99.90
2022-09-17T20:11:23.321Z,99.90
2022-09-17T20:13:50.751Z,99.90
2022-09-17T20:16:21.776Z,99.90
2022-09-17T20:18:50.070Z,99.90
2022-09-17T20:21:22.029Z,99.90
2022-09-17T20:23:49.216Z,99.90
2022-09-17T20:26:17.181Z,99.90
2022-09-17T20:28:44.861Z,99.90
2022-09-17T20:31:27.614Z,99.90
2022-09-17T20:34:01.152Z,99.90
2022-09-17T20:36:31.283Z,99.90
2022-09-17T20:39:21.055Z,99.90
2022-09-17T20:41:45.262Z,99.90
2022-09-17T20:44:11.978Z,99.90
2022-09-17T20:46:38.790Z,99.90
2022-09-17T20:49:05.616Z,99.90
2022-09-17T20:51:33.707Z,99.90
2022-09-17T20:54:01.539Z,99.90
2022-09-17T20:56:32.972Z,99.90
2022-09-17T20:59:14.117Z,99.90
2022-09-17T21:01:44.684Z,99.90
2022-09-17T21:04:16.556Z,99.90
2022-09-17T21:06:44.549Z,99.90
2022-09-17T21:09:16.411Z,99.90
2022-09-17T21:11:45.893Z,99.90
2022-09-17T21:14:15.149Z,99.90
2022-09-17T21:16:42.303Z,99.90
2022-09-17T21:19:11.701Z,99.90
2022-09-17T21:21:38.398Z,99.90
2022-09-17T21:24:07.355Z,99.90
2022-09-17T21:26:34.827Z,99.90
2022-09-17T21:29:01.997Z,99.90
2022-09-17T21:31:33.382Z,99.90
2022-09-17T21:34:04.143Z,99.90
2022-09-17T21:36:35.127Z,99.90
2022-09-17T21:39:05.850Z,99.90
2022-09-17T21:41:33.140Z,99.90
2022-09-17T21:44:00.029Z,99.90
2022-09-17T21:46:34.948Z,99.90
2022-09-17T21:49:04.170Z,99.90
2022-09-17T21:51:40.517Z,99.90
2022-09-17T21:54:10.682Z,99.90
2022-09-17T21:56:38.142Z,99.90
2022-09-17T21:59:13.300Z,99.90
2022-09-17T22:01:46.206Z,99.90
2022-09-17T22:04:17.271Z,99.90
2022-09-17T22:06:46.532Z,99.90
2022-09-17T22:09:23.296Z,99.90
2022-09-17T22:11:52.168Z,99.90
2022-09-17T22:14:22.474Z,99.90
2022-09-17T22:16:58.710Z,99.90
2022-09-17T22:19:26.093Z,99.90
2022-09-17T22:21:55.461Z,99.90
2022-09-17T22:24:24.008Z,99.90
2022-09-17T22:26:57.402Z,99.90
2022-09-17T22:29:26.989Z,99.90
2022-09-17T22:31:53.706Z,99.90
2022-09-17T22:34:22.979Z,99.90
2022-09-17T22:36:50.206Z,99.90
2022-09-17T22:39:18.937Z,99.90
2022-09-17T22:41:46.029Z,99.90
2022-09-17T22:44:19.318Z,99.90
2022-09-17T22:46:50.275Z,99.90
2022-09-17T22:49:18.553Z,99.90
2022-09-17T22:51:46.991Z,99.90
2022-09-17T22:54:18.435Z,99.90
2022-09-17T22:56:47.546Z,99.90
2022-09-17T22:59:14.360Z,99.90
2022-09-17T23:01:41.595Z,99.90
2022-09-17T23:04:08.686Z,99.90
2022-09-17T23:06:38.479Z,99.90
2022-09-17T23:09:06.680Z,99.90
2022-09-17T23:11:39.417Z,99.90
2022-09-17T23:14:11.897Z,99.90
2022-09-17T23:16:46.791Z,99.90
2022-09-17T23:19:16.583Z,99.90
2022-09-17T23:21:44.486Z,99.90
2022-09-17T23:24:19.072Z,99.90
2022-09-17T23:26:46.337Z,99.90
2022-09-17T23:29:13.470Z,99.90
2022-09-17T23:31:40.715Z,99.90
2022-09-17T23:34:07.579Z,99.90
2022-09-17T23:36:38.010Z,99.90
2022-09-17T23:39:07.039Z,99.90
2022-09-17T23:41:37.977Z,99.90
2022-09-17T23:44:13.773Z,99.90
2022-09-17T23:46:42.745Z,99.90
2022-09-17T23:49:12.524Z,99.90
2022-09-17T23:51:39.244Z,99.90
2022-09-17T23:54:07.091Z,99.90
2022-09-17T23:56:34.935Z,99.90
2022-09-17T23:59:03.797Z,99.90
